Time;durP1;ratioP1;P1;durP2;ratioP2;P2;SDS_P1;SDS_P2;PMS_P1;PMS_P2;Temp;Humidity;BMP_temperature;BMP_pressure;BME280_temperature;BME280_humidity;BME280_pressure;Samples;Min_cycle;Max_cycle;Signal;HPM_P1;HPM_P2
2022/01/05 00:01:10;;;;;;;;;;;;;;;7.52;100.00;98837.03;5598658;31;33606;-84
2022/01/05 00:04:13;;;;;;;;;;;;;;;7.54;100.00;98845.59;5599190;31;34976;-84
2022/01/05 00:07:17;;;;;;;;;;;;;;;7.50;100.00;98833.72;5598883;31;33654;-84
2022/01/05 00:10:20;;;;;;;;;;;;;;;7.55;100.00;98836.72;5598581;31;34644;-84
2022/01/05 00:13:23;;;;;;;;;;;;;;;7.69;100.00;98837.91;5599405;31;34008;-83
2022/01/05 00:16:29;;;;;;;;;;;;;;;7.60;100.00;98839.69;5600358;31;33610;-84
2022/01/05 00:19:34;;;;;;;;;;;;;;;7.62;100.00;98840.34;5599469;31;34122;-84
2022/01/05 00:22:37;;;;;;;;;;;;;;;7.66;100.00;98838.22;5600324;31;33475;-83
2022/01/05 00:25:41;;;;;;;;;;;;;;;7.62;100.00;98832.47;5599604;31;32252;-84
2022/01/05 00:28:44;;;;;;;;;;;;;;;7.65;100.00;98826.87;5599385;31;34611;-84
2022/01/05 00:31:46;;;;;;;;;;;;;;;7.57;100.00;98827.66;5599383;31;33809;-84
2022/01/05 00:34:49;;;;;;;;;;;;;;;7.55;100.00;98820.94;5599208;31;33948;-84
2022/01/05 00:37:54;;;;;;;;;;;;;;;7.50;100.00;98817.94;5602120;31;33959;-84
2022/01/05 00:41:00;;;;;;;;;;;;;;;7.41;100.00;98814.47;5601238;31;34113;-83
2022/01/05 00:44:03;;;;;;;;;;;;;;;7.35;100.00;98817.69;5597646;31;34576;-83
2022/01/05 00:47:06;;;;;;;;;;;;;;;7.44;100.00;98808.84;5598367;31;33534;-83
2022/01/05 00:50:10;;;;;;;;;;;;;;;7.36;100.00;98812.31;5596955;31;34055;-84
2022/01/05 00:53:13;;;;;;;;;;;;;;;7.34;100.00;98823.94;5598243;31;35716;-84
2022/01/05 00:56:15;;;;;;;;;;;;;;;7.33;100.00;98833.66;5597515;31;34529;-83
2022/01/05 00:59:18;;;;;;;;;;;;;;;7.31;100.00;98834.78;5598352;31;34636;-84
2022/01/05 01:02:24;;;;;;;;;;;;;;;7.28;100.00;98833.28;5598938;31;34411;-84
2022/01/05 01:05:28;;;;;;;;;;;;;;;7.17;100.00;98830.91;5598178;31;33931;-84
2022/01/05 01:08:31;;;;;;;;;;;;;;;7.13;100.00;98825.16;5598140;31;34571;-84
2022/01/05 01:11:33;;;;;;;;;;;;;;;7.09;100.00;98832.53;5599501;31;34258;-84
2022/01/05 01:14:38;;;;;;;;;;;;;;;7.06;100.00;98832.81;5570994;31;891814;-84
2022/01/05 01:17:41;;;;;;;;;;;;;;;7.02;100.00;98836.75;5600572;31;34448;-83
2022/01/05 01:20:43;;;;;;;;;;;;;;;7.04;100.00;98840.03;5598456;31;33978;-84
2022/01/05 01:23:55;;;;;;;;;;;;;;;7.03;100.00;98838.41;5598239;31;33678;-84
2022/01/05 01:26:57;;;;;;;;;;;;;;;7.03;100.00;98833.16;5598320;31;34307;-83
2022/01/05 01:30:00;;;;;;;;;;;;;;;6.96;100.00;98837.38;5597781;31;34404;-84
2022/01/05 01:33:04;;;;;;;;;;;;;;;7.01;100.00;98829.00;5597370;31;33482;-83
2022/01/05 01:36:08;;;;;;;;;;;;;;;7.02;100.00;98826.25;5596889;31;34340;-84
2022/01/05 01:39:13;;;;;;;;;;;;;;;6.95;100.00;98815.53;5598013;31;33945;-83
2022/01/05 01:42:18;;;;;;;;;;;;;;;6.96;100.00;98811.06;5597899;31;33775;-83
2022/01/05 01:45:20;;;;;;;;;;;;;;;6.95;100.00;98809.41;5598480;31;33829;-83
2022/01/05 01:48:23;;;;;;;;;;;;;;;7.06;100.00;98814.41;5597469;31;35144;-83
2022/01/05 01:51:25;;;;;;;;;;;;;;;6.99;100.00;98821.28;5598529;31;34011;-83
2022/01/05 01:54:28;;;;;;;;;;;;;;;6.98;100.00;98819.63;5599571;31;34268;-83
2022/01/05 01:57:33;;;;;;;;;;;;;;;7.00;100.00;98815.06;5598591;31;33865;-83
2022/01/05 02:00:39;;;;;;;;;;;;;;;6.97;100.00;98811.91;5597926;31;33494;-84
2022/01/05 02:03:41;;;;;;;;;;;;;;;6.89;100.00;98815.31;5597431;31;34123;-83
2022/01/05 02:06:44;;;;;;;;;;;;;;;6.79;100.00;98820.66;5605502;31;33768;-83
2022/01/05 02:09:47;;;;;;;;;;;;;;;6.80;100.00;98819.66;5600977;31;33941;-83
2022/01/05 02:12:50;;;;;;;;;;;;;;;6.76;100.00;98820.94;5597050;31;34906;-83
2022/01/05 02:15:53;;;;;;;;;;;;;;;6.68;100.00;98819.09;5596910;31;34645;-83
2022/01/05 02:18:58;;;;;;;;;;;;;;;6.65;100.00;98814.16;5598114;31;33961;-83
2022/01/05 02:22:02;;;;;;;;;;;;;;;6.66;100.00;98831.56;5596478;31;33519;-83
2022/01/05 02:25:07;;;;;;;;;;;;;;;6.71;100.00;98826.66;5598566;31;34340;-83
2022/01/05 02:28:11;;;;;;;;;;;;;;;6.72;100.00;98819.63;5598585;31;33966;-84
2022/01/05 02:31:13;;;;;;;;;;;;;;;6.68;100.00;98819.09;5598193;31;34942;-84
2022/01/05 02:34:17;;;;;;;;;;;;;;;6.62;100.00;98815.28;5598716;31;33689;-84
2022/01/05 02:37:19;;;;;;;;;;;;;;;6.69;100.00;98809.41;5598122;31;33588;-84
2022/01/05 02:40:23;;;;;;;;;;;;;;;6.69;100.00;98810.25;5597956;31;34287;-83
2022/01/05 02:43:26;;;;;;;;;;;;;;;6.79;100.00;98800.47;5597222;31;34085;-84
2022/01/05 02:46:32;;;;;;;;;;;;;;;6.84;100.00;98799.16;5598419;31;34221;-84
2022/01/05 02:49:34;;;;;;;;;;;;;;;6.71;100.00;98803.00;5598265;31;34356;-84
2022/01/05 02:52:38;;;;;;;;;;;;;;;6.72;100.00;98794.16;5597892;31;33988;-83
2022/01/05 02:55:40;;;;;;;;;;;;;;;6.74;100.00;98786.94;5596511;31;33545;-83
2022/01/05 02:58:43;;;;;;;;;;;;;;;6.72;100.00;98798.59;5596251;31;36140;-83
2022/01/05 03:01:45;;;;;;;;;;;;;;;6.72;100.00;98798.59;5596331;31;33597;-83
2022/01/05 03:04:50;;;;;;;;;;;;;;;6.73;100.00;98806.31;5583522;31;34163;-83
2022/01/05 03:07:53;;;;;;;;;;;;;;;6.79;100.00;98797.00;5596465;31;33960;-83
2022/01/05 03:10:56;;;;;;;;;;;;;;;6.71;100.00;98792.50;5596075;31;34180;-83
2022/01/05 03:13:58;;;;;;;;;;;;;;;6.77;100.00;98791.91;5595104;31;34276;-83
2022/01/05 03:17:04;;;;;;;;;;;;;;;6.82;100.00;98782.72;5595818;31;33405;-83
2022/01/05 03:20:08;;;;;;;;;;;;;;;6.79;100.00;98779.44;5596431;31;34487;-83
2022/01/05 03:23:12;;;;;;;;;;;;;;;6.86;100.00;98781.44;5595663;31;33530;-83
2022/01/05 03:26:14;;;;;;;;;;;;;;;6.77;100.00;98785.81;5595401;31;34367;-83
2022/01/05 03:29:17;;;;;;;;;;;;;;;6.68;100.00;98786.72;5596521;31;33349;-83
2022/01/05 03:32:20;;;;;;;;;;;;;;;6.61;100.00;98782.09;5595668;31;34369;-83
2022/01/05 03:35:23;;;;;;;;;;;;;;;6.63;100.00;98792.44;5595408;31;33876;-83
2022/01/05 03:38:30;;;;;;;;;;;;;;;6.48;100.00;98777.22;5597924;31;34529;-83
2022/01/05 03:41:32;;;;;;;;;;;;;;;6.37;100.00;98785.34;5600468;31;34355;-83
2022/01/05 03:44:35;;;;;;;;;;;;;;;6.25;100.00;98784.75;5596327;31;33921;-83
2022/01/05 03:47:38;;;;;;;;;;;;;;;6.14;100.00;98775.28;5595761;31;34985;-83
2022/01/05 03:50:41;;;;;;;;;;;;;;;6.21;100.00;98769.44;5598031;31;34693;-83
2022/01/05 03:53:46;;;;;;;;;;;;;;;6.21;100.00;98766.81;5599357;31;34465;-86
2022/01/05 03:56:51;;;;;;;;;;;;;;;6.26;100.00;98772.44;5594583;31;34487;-85
2022/01/05 03:59:53;;;;;;;;;;;;;;;6.34;100.00;98765.47;5595992;31;33442;-85
2022/01/05 04:02:59;;;;;;;;;;;;;;;6.38;100.00;98758.09;5596281;31;34066;-85
2022/01/05 04:06:01;;;;;;;;;;;;;;;6.49;100.00;98763.09;5595487;31;33843;-85
2022/01/05 04:09:05;;;;;;;;;;;;;;;6.62;100.00;98767.13;5595414;31;33967;-85
2022/01/05 04:12:08;;;;;;;;;;;;;;;6.67;100.00;98761.41;5594777;31;33934;-85
2022/01/05 04:15:13;;;;;;;;;;;;;;;6.69;100.00;98757.69;5595090;31;33987;-85
2022/01/05 04:18:16;;;;;;;;;;;;;;;6.70;100.00;98763.75;5595620;31;34933;-85
2022/01/05 04:21:18;;;;;;;;;;;;;;;6.78;100.00;98756.75;5596678;31;33835;-85
2022/01/05 04:24:23;;;;;;;;;;;;;;;6.80;100.00;98759.22;5596435;31;33441;-86
2022/01/05 04:27:35;;;;;;;;;;;;;;;6.67;100.00;98759.63;5598644;31;34972;-86
2022/01/05 04:30:37;;;;;;;;;;;;;;;6.64;100.00;98750.22;5598636;31;34346;-85
2022/01/05 04:33:40;;;;;;;;;;;;;;;6.72;100.00;98738.97;5600310;31;33850;-85
2022/01/05 04:37:03;;;;;;;;;;;;;;;6.84;100.00;98749.22;5598228;31;34464;-85
2022/01/05 04:40:06;;;;;;;;;;;;;;;6.99;100.00;98741.56;5598442;31;33437;-85
2022/01/05 04:43:10;;;;;;;;;;;;;;;7.06;100.00;98738.16;5598864;31;33478;-85
2022/01/05 04:46:13;;;;;;;;;;;;;;;7.02;100.00;98747.38;5599198;31;32505;-85
2022/01/05 04:49:16;;;;;;;;;;;;;;;7.11;100.00;98741.16;5599365;31;34757;-85
2022/01/05 04:52:33;;;;;;;;;;;;;;;7.13;100.00;98734.91;5597147;31;34553;-85
2022/01/05 04:55:36;;;;;;;;;;;;;;;7.14;100.00;98739.19;5598843;31;34064;-85
2022/01/05 04:58:39;;;;;;;;;;;;;;;7.24;100.00;98743.34;5599382;31;34855;-86
2022/01/05 05:01:45;;;;;;;;;;;;;;;7.37;100.00;98740.28;5598912;31;33886;-85
2022/01/05 05:04:48;;;;;;;;;;;;;;;7.34;100.00;98740.59;5601440;31;34348;-85
2022/01/05 05:07:53;;;;;;;;;;;;;;;7.18;100.00;98741.34;5598994;31;34839;-85
2022/01/05 05:10:57;;;;;;;;;;;;;;;7.08;100.00;98730.94;5599829;31;33750;-85
2022/01/05 05:14:00;;;;;;;;;;;;;;;7.12;100.00;98734.06;5599403;31;33953;-85
2022/01/05 05:17:02;;;;;;;;;;;;;;;7.10;100.00;98744.75;5599146;31;36182;-86
2022/01/05 05:20:05;;;;;;;;;;;;;;;7.16;100.00;98753.00;5594828;31;34761;-87
2022/01/05 05:23:08;;;;;;;;;;;;;;;7.30;100.00;98755.03;5592476;31;33956;-88
2022/01/05 05:26:13;;;;;;;;;;;;;;;7.20;100.00;98760.44;5592606;31;33773;-87
2022/01/05 05:29:19;;;;;;;;;;;;;;;7.25;100.00;98757.34;5592864;31;34058;-87
2022/01/05 05:32:22;;;;;;;;;;;;;;;7.16;100.00;98758.25;5592527;31;33974;-88
2022/01/05 05:35:26;;;;;;;;;;;;;;;7.06;100.00;98769.72;5593249;31;33352;-87
2022/01/05 05:38:29;;;;;;;;;;;;;;;7.08;100.00;98759.88;5593212;31;33562;-87
2022/01/05 05:41:31;;;;;;;;;;;;;;;6.99;100.00;98766.06;5593129;31;33737;-87
2022/01/05 05:44:34;;;;;;;;;;;;;;;6.99;100.00;98766.06;5592598;31;33866;-87
2022/01/05 05:47:39;;;;;;;;;;;;;;;7.06;100.00;98774.16;5592733;31;33766;-88
2022/01/05 05:50:42;;;;;;;;;;;;;;;7.10;100.00;98776.31;5592716;31;34630;-87
2022/01/05 05:53:44;;;;;;;;;;;;;;;7.12;100.00;98781.41;5592327;31;34135;-87
2022/01/05 05:56:50;;;;;;;;;;;;;;;7.00;100.00;98780.87;5592826;31;33738;-88
2022/01/05 05:59:52;;;;;;;;;;;;;;;6.93;100.00;98787.72;5592432;31;33743;-87
2022/01/05 06:02:59;;;;;;;;;;;;;;;6.90;100.00;98780.16;5591987;31;33812;-88
2022/01/05 06:06:02;;;;;;;;;;;;;;;6.84;100.00;98796.53;5594176;31;33934;-87
2022/01/05 06:09:06;;;;;;;;;;;;;;;6.93;100.00;98790.34;5594112;31;33649;-88
2022/01/05 06:12:09;;;;;;;;;;;;;;;6.90;100.00;98780.16;5592692;31;34126;-87
2022/01/05 06:15:11;;;;;;;;;;;;;;;6.81;100.00;98787.16;5593092;31;33988;-88
2022/01/05 06:18:14;;;;;;;;;;;;;;;6.71;100.00;98792.50;5594679;31;33662;-88
2022/01/05 06:21:16;;;;;;;;;;;;;;;6.69;100.00;98796.25;5594051;31;33973;-88
2022/01/05 06:24:20;;;;;;;;;;;;;;;6.64;100.00;98791.47;5592215;31;33886;-88
2022/01/05 06:27:25;;;;;;;;;;;;;;;6.69;100.00;98798.91;5592362;31;33475;-87
2022/01/05 06:30:28;;;;;;;;;;;;;;;6.79;100.00;98805.72;5597864;31;34380;-85
2022/01/05 06:33:30;;;;;;;;;;;;;;;6.80;100.00;98796.84;5598343;31;33924;-85
2022/01/05 06:36:33;;;;;;;;;;;;;;;6.84;100.00;98791.28;5597382;31;33832;-85
2022/01/05 06:39:35;;;;;;;;;;;;;;;6.82;100.00;98799.31;5597944;31;34087;-85
2022/01/05 06:42:38;;;;;;;;;;;;;;;6.83;100.00;98800.12;5596204;31;33939;-85
2022/01/05 06:45:41;;;;;;;;;;;;;;;6.87;100.00;98807.56;5601494;31;33702;-85
2022/01/05 06:48:44;;;;;;;;;;;;;;;6.90;100.00;98804.63;5599781;31;35010;-85
2022/01/05 06:51:50;;;;;;;;;;;;;;;6.92;100.00;98799.22;5598169;31;34925;-85
2022/01/05 06:54:53;;;;;;;;;;;;;;;6.95;100.00;98789.22;5597369;31;35075;-85
2022/01/05 06:57:55;;;;;;;;;;;;;;;6.88;100.00;98797.88;5598056;31;33369;-85
2022/01/05 07:00:58;;;;;;;;;;;;;;;6.96;100.00;98811.06;5597306;31;33869;-85
2022/01/05 07:04:03;;;;;;;;;;;;;;;7.01;100.00;98813.22;5596366;31;34633;-85
2022/01/05 07:07:06;;;;;;;;;;;;;;;6.98;100.00;98814.38;5596295;31;34135;-85
2022/01/05 07:10:09;;;;;;;;;;;;;;;6.98;100.00;98805.69;5596100;31;33792;-85
2022/01/05 07:13:12;;;;;;;;;;;;;;;6.97;100.00;98796.94;5596401;31;33843;-85
2022/01/05 07:16:14;;;;;;;;;;;;;;;7.00;100.00;98794.03;5595687;31;33348;-85
2022/01/05 07:19:20;;;;;;;;;;;;;;;7.08;100.00;98795.88;5596054;31;34184;-85
2022/01/05 07:22:22;;;;;;;;;;;;;;;7.14;100.00;98797.88;5595297;31;33710;-85
2022/01/05 07:25:26;;;;;;;;;;;;;;;7.32;100.00;98805.69;5596736;31;33765;-85
2022/01/05 07:28:33;;;;;;;;;;;;;;;7.31;100.00;98811.13;5596194;31;33575;-85
2022/01/05 07:31:36;;;;;;;;;;;;;;;7.37;100.00;98808.69;5595868;31;34337;-85
2022/01/05 07:34:40;;;;;;;;;;;;;;;7.53;100.00;98810.56;5597849;31;33804;-85
2022/01/05 07:37:46;;;;;;;;;;;;;;;7.62;100.00;98807.97;5596699;31;34763;-85
2022/01/05 07:40:48;;;;;;;;;;;;;;;7.61;100.00;98809.75;5596010;31;33893;-85
2022/01/05 07:43:51;;;;;;;;;;;;;;;7.67;100.00;98803.87;5595398;31;33567;-85
2022/01/05 07:46:54;;;;;;;;;;;;;;;7.72;100.00;98812.09;5595816;31;33728;-86
2022/01/05 07:49:56;;;;;;;;;;;;;;;7.72;100.00;98812.09;5594948;31;34585;-85
2022/01/05 07:53:04;;;;;;;;;;;;;;;7.84;100.00;98811.81;5596158;31;33680;-86
2022/01/05 07:56:08;;;;;;;;;;;;;;;7.87;100.00;98793.91;5596050;31;33829;-85
2022/01/05 07:59:11;;;;;;;;;;;;;;;7.87;100.00;98787.78;5595325;31;33928;-86
2022/01/05 08:02:13;;;;;;;;;;;;;;;7.92;100.00;98795.22;5598468;31;33884;-85
2022/01/05 08:05:16;;;;;;;;;;;;;;;8.04;100.00;98788.66;5598499;31;34879;-85
2022/01/05 08:08:19;;;;;;;;;;;;;;;8.07;100.00;98792.75;5598022;31;33613;-85
2022/01/05 08:11:22;;;;;;;;;;;;;;;8.12;100.00;98808.91;5598264;31;34080;-84
2022/01/05 08:14:24;;;;;;;;;;;;;;;8.07;100.00;98806.78;5599882;31;33964;-84
2022/01/05 08:17:29;;;;;;;;;;;;;;;8.12;100.00;98811.56;5598612;31;34258;-85
2022/01/05 08:20:31;;;;;;;;;;;;;;;8.21;100.00;98825.56;5597815;31;33616;-84
2022/01/05 08:23:35;;;;;;;;;;;;;;;8.11;100.00;98817.81;5597498;31;33638;-85
2022/01/05 08:26:38;;;;;;;;;;;;;;;8.21;100.00;98828.22;5596177;31;33959;-85
2022/01/05 08:29:40;;;;;;;;;;;;;;;8.12;100.00;98822.09;5598282;31;33885;-85
2022/01/05 08:32:47;;;;;;;;;;;;;;;8.09;100.00;98817.97;5597199;31;33579;-85
2022/01/05 08:35:49;;;;;;;;;;;;;;;8.25;100.00;98809.28;5599374;31;33817;-85
2022/01/05 08:38:52;;;;;;;;;;;;;;;8.39;100.00;98810.44;5599086;31;33948;-85
2022/01/05 08:41:54;;;;;;;;;;;;;;;8.59;100.00;98823.31;5599023;31;33957;-85
2022/01/05 08:44:59;;;;;;;;;;;;;;;8.69;100.00;98828.44;5597110;31;34176;-82
2022/01/05 08:48:02;;;;;;;;;;;;;;;8.78;100.00;98837.97;5598376;31;33827;-84
2022/01/05 08:51:07;;;;;;;;;;;;;;;8.72;100.00;98822.84;5601571;31;34412;-85
2022/01/05 08:54:15;;;;;;;;;;;;;;;8.75;100.00;98827.75;5596479;31;33668;-84
2022/01/05 08:57:18;;;;;;;;;;;;;;;8.91;100.00;98826.91;5596525;31;33982;-84
2022/01/05 09:00:20;;;;;;;;;;;;;;;8.90;100.00;98820.84;5596715;31;33605;-85
2022/01/05 09:03:24;;;;;;;;;;;;;;;8.91;100.00;98811.94;5595545;31;34006;-85
2022/01/05 09:06:28;;;;;;;;;;;;;;;8.83;100.00;98827.78;5596084;31;33675;-85
2022/01/05 09:09:30;;;;;;;;;;;;;;;8.81;100.00;98835.03;5595418;31;34245;-85
2022/01/05 09:12:33;;;;;;;;;;;;;;;8.81;100.00;98835.03;5595681;31;34011;-85
2022/01/05 09:15:36;;;;;;;;;;;;;;;8.95;100.00;98844.88;5596643;31;33521;-85
2022/01/05 09:18:40;;;;;;;;;;;;;;;8.87;100.00;98846.72;5596093;31;33886;-85
2022/01/05 09:21:43;;;;;;;;;;;;;;;8.92;100.00;98845.25;5596353;31;33789;-85
2022/01/05 09:24:48;;;;;;;;;;;;;;;9.06;100.00;98850.84;5595961;31;34185;-85
2022/01/05 09:27:51;;;;;;;;;;;;;;;9.15;100.00;98857.75;5595000;31;33841;-85
2022/01/05 09:30:56;;;;;;;;;;;;;;;9.40;100.00;98847.12;5595814;31;34311;-85
2022/01/05 09:33:59;;;;;;;;;;;;;;;9.26;100.00;98862.66;5597468;31;34295;-86
2022/01/05 09:37:11;;;;;;;;;;;;;;;9.31;100.00;98870.06;5600725;31;33718;-85
2022/01/05 09:43:47;;;;;;;;;;;;;;;9.53;100.00;98875.63;5600162;31;34556;-85
2022/01/05 09:46:58;;;;;;;;;;;;;;;9.55;100.00;98879.75;5599719;31;34664;-84
2022/01/05 09:50:03;;;;;;;;;;;;;;;9.57;100.00;98877.75;5599535;31;33994;-85
2022/01/05 09:53:07;;;;;;;;;;;;;;;9.56;100.00;98878.75;5601517;31;34473;-85
2022/01/05 09:56:10;;;;;;;;;;;;;;;9.77;100.00;98879.19;5599607;31;33696;-85
2022/01/05 09:59:15;;;;;;;;;;;;;;;9.72;100.00;98871.78;5597889;31;33849;-85
2022/01/05 10:02:19;;;;;;;;;;;;;;;9.56;100.00;98867.38;5597733;31;33921;-85
2022/01/05 10:05:30;;;;;;;;;;;;;;;9.58;100.00;98866.22;5600299;31;33769;-85
2022/01/05 10:08:33;;;;;;;;;;;;;;;9.44;100.00;98869.53;5596606;31;33962;-85
2022/01/05 10:11:44;;;;;;;;;;;;;;;9.49;100.00;98871.66;5596769;31;34292;-85
2022/01/05 10:14:48;;;;;;;;;;;;;;;9.45;100.00;98876.47;5598638;31;34437;-85
2022/01/05 10:18:07;;;;;;;;;;;;;;;9.21;100.00;98887.91;5597256;31;34068;-85
2022/01/05 10:21:14;;;;;;;;;;;;;;;9.34;100.00;98892.66;5598598;31;34067;-85
2022/01/05 10:24:17;;;;;;;;;;;;;;;9.11;100.00;98877.53;5597514;31;34007;-85
2022/01/05 10:27:20;;;;;;;;;;;;;;;9.11;100.00;98880.16;5597500;31;33484;-86
2022/01/05 10:30:33;;;;;;;;;;;;;;;9.19;100.00;98880.13;5600478;31;33923;-85
2022/01/05 10:33:36;;;;;;;;;;;;;;;9.00;100.00;98872.59;5598051;31;33962;-85
2022/01/05 10:36:42;;;;;;;;;;;;;;;8.90;100.00;98868.31;5598316;31;32635;-85
2022/01/05 10:39:45;;;;;;;;;;;;;;;8.89;100.00;98887.75;5598672;31;34013;-84
2022/01/05 10:42:48;;;;;;;;;;;;;;;8.79;100.00;98879.19;5598561;31;33895;-84
2022/01/05 10:45:51;;;;;;;;;;;;;;;8.74;100.00;98868.28;5599084;31;33260;-83
2022/01/05 10:49:03;;;;;;;;;;;;;;;8.77;100.00;98873.25;5597444;31;33682;-83
2022/01/05 10:52:19;;;;;;;;;;;;;;;8.65;100.00;98876.22;5598837;31;33797;-83
2022/01/05 10:55:24;;;;;;;;;;;;;;;8.54;100.00;98894.97;5598897;31;33478;-84
2022/01/05 10:58:40;;;;;;;;;;;;;;;8.56;100.00;98887.75;5600530;31;34078;-85
2022/01/05 11:01:43;;;;;;;;;;;;;;;8.47;100.00;98888.69;5599576;31;33737;-85
2022/01/05 11:04:46;;;;;;;;;;;;;;;8.42;100.00;98891.81;5599185;31;34102;-83
2022/01/05 11:07:49;;;;;;;;;;;;;;;8.24;100.00;98906.91;5598747;31;33861;-83
2022/01/05 11:10:51;;;;;;;;;;;;;;;8.12;100.00;98911.66;5598785;31;33450;-84
2022/01/05 11:14:02;;;;;;;;;;;;;;;7.89;100.00;98906.97;5598792;31;34398;-84
2022/01/05 11:17:05;;;;;;;;;;;;;;;7.76;100.00;98922.34;5597467;31;34742;-85
2022/01/05 11:20:09;;;;;;;;;;;;;;;7.62;100.00;98919.31;5597699;31;33399;-86
2022/01/05 11:23:12;;;;;;;;;;;;;;;7.57;100.00;98925.06;5598961;31;34123;-83
2022/01/05 11:26:15;;;;;;;;;;;;;;;7.55;100.00;98937.53;5596443;31;33944;-82
2022/01/05 11:29:17;;;;;;;;;;;;;;;7.50;100.00;98936.34;5596399;31;34248;-83
2022/01/05 11:32:23;;;;;;;;;;;;;;;7.43;100.00;98944.03;5595026;31;35519;-83
2022/01/05 11:35:26;;;;;;;;;;;;;;;7.38;100.00;98943.69;5597505;31;34414;-84
2022/01/05 11:38:29;;;;;;;;;;;;;;;7.34;100.00;98951.06;5598008;31;33495;-84
2022/01/05 11:41:32;;;;;;;;;;;;;;;7.33;100.00;98953.84;5598933;31;34919;-83
2022/01/05 11:44:48;;;;;;;;;;;;;;;7.23;100.00;98951.31;5596585;31;34349;-82
2022/01/05 11:47:50;;;;;;;;;;;;;;;7.11;100.00;98946.28;5597298;31;34017;-83
2022/01/05 11:51:03;;;;;;;;;;;;;;;7.05;100.00;98962.66;5597858;31;33828;-82
2022/01/05 11:54:21;;;;;;;;;;;;;;;6.92;100.00;98980.66;5597573;31;34689;-82
2022/01/05 11:57:23;;;;;;;;;;;;;;;6.90;100.00;98995.72;5596327;31;33964;-83
2022/01/05 12:00:26;;;;;;;;;;;;;;;7.02;100.00;98984.03;5598337;31;33932;-83
2022/01/05 12:03:52;;;;;;;;;;;;;;;7.09;100.00;98968.47;5596851;31;34039;-84
2022/01/05 12:07:04;;;;;;;;;;;;;;;7.15;100.00;98967.03;5597317;31;33931;-83
2022/01/05 12:10:12;;;;;;;;;;;;;;;6.92;100.00;98988.53;5599709;31;33609;-83
2022/01/05 12:13:15;;;;;;;;;;;;;;;6.76;100.00;98982.13;5597878;31;34597;-83
2022/01/05 12:16:17;;;;;;;;;;;;;;;6.85;100.00;98988.31;5597301;31;34480;-84
2022/01/05 12:19:20;;;;;;;;;;;;;;;6.79;100.00;99002.87;5596883;31;33490;-83
2022/01/05 12:22:24;;;;;;;;;;;;;;;6.84;100.00;99001.56;5595705;31;33563;-85
2022/01/05 12:25:27;;;;;;;;;;;;;;;6.86;100.00;98994.37;5597009;31;33772;-84
2022/01/05 12:28:31;;;;;;;;;;;;;;;6.73;100.00;98992.12;5597502;31;33475;-85
2022/01/05 12:31:52;;;;;;;;;;;;;;;6.71;100.00;99005.38;5598293;31;34393;-85
2022/01/05 12:35:01;;;;;;;;;;;;;;;6.60;100.00;99010.84;5597508;31;34312;-85
2022/01/05 12:38:06;;;;;;;;;;;;;;;6.53;100.00;99010.59;5596897;31;33594;-85
2022/01/05 12:41:26;;;;;;;;;;;;;;;6.46;100.00;99010.41;5596050;31;33604;-85
2022/01/05 12:44:30;;;;;;;;;;;;;;;6.42;100.00;99035.28;5597647;31;34578;-85
2022/01/05 12:47:37;;;;;;;;;;;;;;;6.43;100.00;99036.94;5597538;31;34298;-85
2022/01/05 12:50:41;;;;;;;;;;;;;;;6.45;100.00;99032.37;5599709;31;34795;-84
2022/01/05 12:53:49;;;;;;;;;;;;;;;6.35;100.00;99031.59;5598291;31;34679;-85
2022/01/05 12:56:57;;;;;;;;;;;;;;;6.33;100.00;99041.44;5596846;31;34357;-84
2022/01/05 13:00:02;;;;;;;;;;;;;;;6.31;100.00;99032.84;5595993;31;34253;-85
2022/01/05 13:03:06;;;;;;;;;;;;;;;6.36;100.00;99045.56;5598179;31;33856;-85
2022/01/05 13:06:16;;;;;;;;;;;;;;;6.33;100.00;99051.94;5597922;31;33956;-85
2022/01/05 13:09:22;;;;;;;;;;;;;;;6.25;100.00;99049.22;5596461;31;33903;-84
2022/01/05 13:12:27;;;;;;;;;;;;;;;6.17;100.00;99058.63;5596343;31;33753;-84
2022/01/05 13:15:34;;;;;;;;;;;;;;;6.16;100.00;99062.19;5595938;31;34441;-84
2022/01/05 13:18:37;;;;;;;;;;;;;;;6.20;100.00;99070.63;5595891;31;33493;-85
2022/01/05 13:21:47;;;;;;;;;;;;;;;6.25;100.00;99078.91;5596435;31;33970;-84
2022/01/05 13:25:11;;;;;;;;;;;;;;;6.20;100.00;99080.31;5596217;31;34181;-84
2022/01/05 13:28:14;;;;;;;;;;;;;;;6.15;100.00;99088.63;5595276;31;33718;-84
2022/01/05 13:31:19;;;;;;;;;;;;;;;6.10;100.00;99091.69;5594962;31;34427;-85
2022/01/05 13:34:37;;;;;;;;;;;;;;;6.20;100.00;99088.19;5596002;31;33234;-85
2022/01/05 13:37:45;;;;;;;;;;;;;;;6.18;100.00;99075.22;5595681;31;33707;-81
2022/01/05 13:40:54;;;;;;;;;;;;;;;6.13;100.00;99095.81;5596007;31;33492;-81
2022/01/05 13:43:58;;;;;;;;;;;;;;;6.09;100.00;99087.37;5595973;31;33607;-81
2022/01/05 13:47:05;;;;;;;;;;;;;;;6.10;100.00;99083.78;5599186;31;34296;-81
2022/01/05 13:50:10;;;;;;;;;;;;;;;6.05;100.00;99086.00;5596859;31;33765;-82
2022/01/05 13:53:19;;;;;;;;;;;;;;;6.06;100.00;99077.16;5597901;31;34482;-82
2022/01/05 13:56:28;;;;;;;;;;;;;;;6.06;100.00;99089.47;5596147;31;34766;-82
2022/01/05 13:59:43;;;;;;;;;;;;;;;5.99;100.00;99097.06;5595211;31;33948;-82
2022/01/05 14:02:46;;;;;;;;;;;;;;;5.95;100.00;99103.53;5596362;31;34015;-85
2022/01/05 14:05:49;;;;;;;;;;;;;;;5.98;100.00;99116.41;5596061;31;33760;-84
2022/01/05 14:08:55;;;;;;;;;;;;;;;5.90;100.00;99117.09;5594858;31;33764;-84
2022/01/05 14:11:58;;;;;;;;;;;;;;;5.95;100.00;99127.19;5595715;31;34275;-84
2022/01/05 14:15:02;;;;;;;;;;;;;;;5.94;100.00;99120.25;5595878;31;33974;-84
2022/01/05 14:18:11;;;;;;;;;;;;;;;5.88;100.00;99122.50;5593725;31;34028;-84
2022/01/05 14:21:25;;;;;;;;;;;;;;;5.91;100.00;99131.06;5596096;31;33962;-84
2022/01/05 14:24:29;;;;;;;;;;;;;;;5.85;100.00;99125.41;5595617;31;33982;-84
2022/01/05 14:27:36;;;;;;;;;;;;;;;5.82;100.00;99127.47;5595920;31;33717;-84
2022/01/05 14:30:53;;;;;;;;;;;;;;;5.78;100.00;99129.56;5594083;31;34001;-84
2022/01/05 14:33:56;;;;;;;;;;;;;;;5.94;100.00;99130.75;5595007;31;34137;-84
2022/01/05 14:37:03;;;;;;;;;;;;;;;5.80;100.00;99129.41;5596207;31;33277;-85
2022/01/05 14:40:20;;;;;;;;;;;;;;;5.70;100.00;99150.38;5596270;31;34170;-85
2022/01/05 14:43:23;;;;;;;;;;;;;;;5.72;100.00;99153.72;5596305;31;34369;-83
2022/01/05 14:46:27;;;;;;;;;;;;;;;5.66;100.00;99170.03;5596167;31;33759;-83
2022/01/05 14:49:31;;;;;;;;;;;;;;;5.65;100.00;99157.88;5595979;31;33393;-83
2022/01/05 14:52:34;;;;;;;;;;;;;;;5.70;100.00;99163.50;5595051;31;34104;-83
2022/01/05 14:55:37;;;;;;;;;;;;;;;5.70;100.00;99168.75;5595656;31;34803;-83
2022/01/05 14:58:39;;;;;;;;;;;;;;;5.74;100.00;99172.78;5594007;31;33611;-84
2022/01/05 15:01:42;;;;;;;;;;;;;;;5.75;100.00;99179.69;5600379;31;33423;-83
2022/01/05 15:04:45;;;;;;;;;;;;;;;5.81;100.00;99176.50;5598832;31;34383;-82
2022/01/05 15:07:47;;;;;;;;;;;;;;;5.73;100.00;99176.38;5602091;31;33965;-83
2022/01/05 15:10:58;;;;;;;;;;;;;;;5.71;100.00;99178.28;5602009;31;33558;-83
2022/01/05 15:14:02;;;;;;;;;;;;;;;5.67;100.00;99171.69;5601438;31;34041;-82
2022/01/05 15:17:05;;;;;;;;;;;;;;;5.63;100.00;99186.84;5597160;31;33608;-83
2022/01/05 15:20:08;;;;;;;;;;;;;;;5.62;100.00;99194.88;5594908;31;34493;-83
2022/01/05 15:23:11;;;;;;;;;;;;;;;5.60;100.00;99223.03;5594588;31;33821;-83
2022/01/05 15:26:16;;;;;;;;;;;;;;;5.62;100.00;99244.72;5595049;31;34696;-83
2022/01/05 15:29:21;;;;;;;;;;;;;;;5.68;100.00;99252.06;5594881;31;33981;-83
2022/01/05 15:32:24;;;;;;;;;;;;;;;5.65;100.00;99241.84;5595542;31;34007;-83
2022/01/05 15:35:27;;;;;;;;;;;;;;;5.64;100.00;99237.56;5593859;31;34244;-83
2022/01/05 15:38:32;;;;;;;;;;;;;;;5.63;100.00;99249.00;5595223;31;33485;-83
2022/01/05 15:41:36;;;;;;;;;;;;;;;5.64;100.00;99245.41;5601241;31;33996;-83
2022/01/05 15:44:39;;;;;;;;;;;;;;;5.65;100.00;99219.03;5596033;31;35044;-83
2022/01/05 15:47:44;;;;;;;;;;;;;;;5.65;100.00;99226.09;5594032;31;34085;-83
2022/01/05 15:50:47;;;;;;;;;;;;;;;5.59;100.00;99237.97;5594011;31;33730;-83
2022/01/05 15:53:52;;;;;;;;;;;;;;;5.48;100.00;99228.41;5593558;31;33571;-82
2022/01/05 15:57:11;;;;;;;;;;;;;;;5.50;100.00;99244.03;5593842;31;33205;-83
2022/01/05 16:03:35;;;;;;;;;;;;;;;5.42;100.00;99236.81;5593731;31;34512;-83
2022/01/05 16:06:39;;;;;;;;;;;;;;;5.38;100.00;99254.63;5594678;31;33868;-83
2022/01/05 16:09:41;;;;;;;;;;;;;;;5.41;100.00;99245.66;5594975;31;34595;-83